sensor_id;sensor_type;location;lat;lon;timestamp;P1;durP1;ratioP1;P2;durP2;ratioP2
2598;SDS011;1309;48.810;8.954;2023-04-24T00:01:16;2.00;;;0.80;;
2598;SDS011;1309;48.810;8.954;2023-04-24T00:03:45;3.33;;;1.77;;
2598;SDS011;1309;48.810;8.954;2023-04-24T00:06:15;1.80;;;0.90;;
2598;SDS011;1309;48.810;8.954;2023-04-24T00:08:45;2.73;;;0.97;;
2598;SDS011;1309;48.810;8.954;2023-04-24T00:11:14;2.37;;;0.90;;
2598;SDS011;1309;48.810;8.954;2023-04-24T00:13:42;2.23;;;1.03;;
2598;SDS011;1309;48.810;8.954;2023-04-24T00:16:10;4.60;;;1.03;;
2598;SDS011;1309;48.810;8.954;2023-04-24T00:18:38;3.00;;;1.03;;
2598;SDS011;1309;48.810;8.954;2023-04-24T00:21:08;2.63;;;0.77;;
2598;SDS011;1309;48.810;8.954;2023-04-24T00:23:40;3.10;;;0.90;;
2598;SDS011;1309;48.810;8.954;2023-04-24T00:26:10;3.20;;;0.90;;
2598;SDS011;1309;48.810;8.954;2023-04-24T00:28:38;2.20;;;1.00;;
2598;SDS011;1309;48.810;8.954;2023-04-24T00:31:06;2.00;;;0.93;;
2598;SDS011;1309;48.810;8.954;2023-04-24T00:33:38;2.93;;;1.00;;
2598;SDS011;1309;48.810;8.954;2023-04-24T00:36:06;2.20;;;0.90;;
2598;SDS011;1309;48.810;8.954;2023-04-24T00:38:34;3.63;;;0.90;;
2598;SDS011;1309;48.810;8.954;2023-04-24T00:41:05;3.10;;;0.90;;
2598;SDS011;1309;48.810;8.954;2023-04-24T00:43:38;2.27;;;0.77;;
2598;SDS011;1309;48.810;8.954;2023-04-24T00:46:07;2.30;;;0.87;;
2598;SDS011;1309;48.810;8.954;2023-04-24T00:48:35;2.00;;;0.80;;
2598;SDS011;1309;48.810;8.954;2023-04-24T00:51:03;1.70;;;0.90;;
2598;SDS011;1309;48.810;8.954;2023-04-24T00:53:31;2.20;;;1.03;;
2598;SDS011;1309;48.810;8.954;2023-04-24T00:55:59;1.90;;;0.90;;
2598;SDS011;1309;48.810;8.954;2023-04-24T00:58:29;2.07;;;0.57;;
2598;SDS011;1309;48.810;8.954;2023-04-24T01:00:57;3.43;;;1.00;;
2598;SDS011;1309;48.810;8.954;2023-04-24T01:03:28;1.83;;;0.63;;
2598;SDS011;1309;48.810;8.954;2023-04-24T01:06:00;2.63;;;0.90;;
2598;SDS011;1309;48.810;8.954;2023-04-24T01:08:28;1.90;;;0.70;;
2598;SDS011;1309;48.810;8.954;2023-04-24T01:10:59;4.03;;;0.80;;
2598;SDS011;1309;48.810;8.954;2023-04-24T01:13:29;1.70;;;0.63;;
2598;SDS011;1309;48.810;8.954;2023-04-24T01:16:00;1.60;;;0.60;;
2598;SDS011;1309;48.810;8.954;2023-04-24T01:18:28;2.27;;;0.70;;
2598;SDS011;1309;48.810;8.954;2023-04-24T01:20:57;1.80;;;0.70;;
2598;SDS011;1309;48.810;8.954;2023-04-24T01:23:28;1.77;;;0.80;;
2598;SDS011;1309;48.810;8.954;2023-04-24T01:26:02;3.40;;;0.80;;
2598;SDS011;1309;48.810;8.954;2023-04-24T01:28:32;2.20;;;0.80;;
2598;SDS011;1309;48.810;8.954;2023-04-24T01:31:00;2.70;;;0.80;;
2598;SDS011;1309;48.810;8.954;2023-04-24T01:33:28;2.30;;;0.90;;
2598;SDS011;1309;48.810;8.954;2023-04-24T01:35:59;2.10;;;0.80;;
2598;SDS011;1309;48.810;8.954;2023-04-24T01:38:28;3.17;;;1.43;;
2598;SDS011;1309;48.810;8.954;2023-04-24T01:41:06;2.13;;;0.87;;
2598;SDS011;1309;48.810;8.954;2023-04-24T01:43:36;2.50;;;1.20;;
2598;SDS011;1309;48.810;8.954;2023-04-24T01:46:04;2.47;;;1.00;;
2598;SDS011;1309;48.810;8.954;2023-04-24T01:48:32;3.20;;;1.17;;
2598;SDS011;1309;48.810;8.954;2023-04-24T01:51:00;2.40;;;1.10;;
2598;SDS011;1309;48.810;8.954;2023-04-24T01:53:31;2.23;;;1.00;;
2598;SDS011;1309;48.810;8.954;2023-04-24T01:55:59;1.90;;;1.00;;
2598;SDS011;1309;48.810;8.954;2023-04-24T01:58:31;2.17;;;0.80;;
2598;SDS011;1309;48.810;8.954;2023-04-24T02:01:00;1.70;;;0.87;;
2598;SDS011;1309;48.810;8.954;2023-04-24T02:03:28;3.73;;;1.20;;
2598;SDS011;1309;48.810;8.954;2023-04-24T02:05:57;2.67;;;1.07;;
2598;SDS011;1309;48.810;8.954;2023-04-24T02:08:25;2.27;;;0.90;;
2598;SDS011;1309;48.810;8.954;2023-04-24T02:10:55;2.50;;;0.80;;
2598;SDS011;1309;48.810;8.954;2023-04-24T02:13:23;1.83;;;0.80;;
2598;SDS011;1309;48.810;8.954;2023-04-24T02:15:55;2.97;;;1.00;;
2598;SDS011;1309;48.810;8.954;2023-04-24T02:18:23;2.30;;;1.00;;
2598;SDS011;1309;48.810;8.954;2023-04-24T02:20:51;2.40;;;1.13;;
2598;SDS011;1309;48.810;8.954;2023-04-24T02:23:20;2.30;;;0.97;;
2598;SDS011;1309;48.810;8.954;2023-04-24T02:25:50;1.80;;;0.77;;
2598;SDS011;1309;48.810;8.954;2023-04-24T02:28:23;3.30;;;0.90;;
2598;SDS011;1309;48.810;8.954;2023-04-24T02:30:51;2.93;;;1.40;;
2598;SDS011;1309;48.810;8.954;2023-04-24T02:33:19;2.80;;;0.90;;
2598;SDS011;1309;48.810;8.954;2023-04-24T02:35:47;1.80;;;1.03;;
2598;SDS011;1309;48.810;8.954;2023-04-24T02:38:15;2.33;;;1.17;;
2598;SDS011;1309;48.810;8.954;2023-04-24T02:40:43;3.20;;;1.30;;
2598;SDS011;1309;48.810;8.954;2023-04-24T02:43:10;2.40;;;1.00;;
2598;SDS011;1309;48.810;8.954;2023-04-24T02:45:40;1.87;;;0.77;;
2598;SDS011;1309;48.810;8.954;2023-04-24T02:48:08;1.80;;;0.77;;
2598;SDS011;1309;48.810;8.954;2023-04-24T02:50:36;2.17;;;1.00;;
2598;SDS011;1309;48.810;8.954;2023-04-24T02:53:04;1.90;;;0.90;;
2598;SDS011;1309;48.810;8.954;2023-04-24T02:55:32;2.00;;;0.90;;
2598;SDS011;1309;48.810;8.954;2023-04-24T02:58:00;2.47;;;1.00;;
2598;SDS011;1309;48.810;8.954;2023-04-24T03:00:33;4.70;;;1.17;;
2598;SDS011;1309;48.810;8.954;2023-04-24T03:03:02;2.73;;;1.00;;
2598;SDS011;1309;48.810;8.954;2023-04-24T03:05:30;2.10;;;0.90;;
2598;SDS011;1309;48.810;8.954;2023-04-24T03:07:58;2.50;;;1.07;;
2598;SDS011;1309;48.810;8.954;2023-04-24T03:10:26;2.00;;;0.93;;
2598;SDS011;1309;48.810;8.954;2023-04-24T03:12:58;3.03;;;1.40;;
2598;SDS011;1309;48.810;8.954;2023-04-24T03:15:26;2.07;;;1.00;;
2598;SDS011;1309;48.810;8.954;2023-04-24T03:17:54;2.33;;;1.00;;
2598;SDS011;1309;48.810;8.954;2023-04-24T03:20:24;2.70;;;1.13;;
2598;SDS011;1309;48.810;8.954;2023-04-24T03:22:54;2.73;;;1.20;;
2598;SDS011;1309;48.810;8.954;2023-04-24T03:25:23;2.37;;;1.40;;
2598;SDS011;1309;48.810;8.954;2023-04-24T03:27:54;2.80;;;1.07;;
2598;SDS011;1309;48.810;8.954;2023-04-24T03:30:23;2.37;;;1.10;;
2598;SDS011;1309;48.810;8.954;2023-04-24T03:32:52;4.07;;;1.10;;
2598;SDS011;1309;48.810;8.954;2023-04-24T03:35:20;2.57;;;1.00;;
2598;SDS011;1309;48.810;8.954;2023-04-24T03:37:54;3.13;;;1.30;;
2598;SDS011;1309;48.810;8.954;2023-04-24T03:40:31;2.73;;;0.97;;
2598;SDS011;1309;48.810;8.954;2023-04-24T03:43:02;3.17;;;1.30;;
2598;SDS011;1309;48.810;8.954;2023-04-24T03:45:32;2.37;;;1.10;;
2598;SDS011;1309;48.810;8.954;2023-04-24T03:48:01;5.87;;;1.27;;
2598;SDS011;1309;48.810;8.954;2023-04-24T03:50:29;2.07;;;1.10;;
2598;SDS011;1309;48.810;8.954;2023-04-24T03:52:58;3.43;;;1.20;;
2598;SDS011;1309;48.810;8.954;2023-04-24T03:55:29;2.27;;;0.83;;
2598;SDS011;1309;48.810;8.954;2023-04-24T03:58:03;3.37;;;1.20;;
2598;SDS011;1309;48.810;8.954;2023-04-24T04:00:32;3.20;;;1.07;;
2598;SDS011;1309;48.810;8.954;2023-04-24T04:03:06;4.27;;;1.60;;
2598;SDS011;1309;48.810;8.954;2023-04-24T04:05:39;3.00;;;1.10;;
2598;SDS011;1309;48.810;8.954;2023-04-24T04:08:10;2.20;;;1.27;;
2598;SDS011;1309;48.810;8.954;2023-04-24T04:10:39;2.57;;;1.00;;
2598;SDS011;1309;48.810;8.954;2023-04-24T04:13:07;2.10;;;1.10;;
2598;SDS011;1309;48.810;8.954;2023-04-24T04:15:35;2.40;;;1.50;;
2598;SDS011;1309;48.810;8.954;2023-04-24T04:18:06;2.47;;;1.43;;
2598;SDS011;1309;48.810;8.954;2023-04-24T04:20:34;3.10;;;1.27;;
2598;SDS011;1309;48.810;8.954;2023-04-24T04:23:02;2.03;;;1.03;;
2598;SDS011;1309;48.810;8.954;2023-04-24T04:25:31;2.67;;;1.50;;
2598;SDS011;1309;48.810;8.954;2023-04-24T04:28:02;3.60;;;2.00;;
2598;SDS011;1309;48.810;8.954;2023-04-24T04:30:31;2.83;;;1.20;;
2598;SDS011;1309;48.810;8.954;2023-04-24T04:32:59;3.50;;;1.27;;
2598;SDS011;1309;48.810;8.954;2023-04-24T04:35:34;2.70;;;1.27;;
2598;SDS011;1309;48.810;8.954;2023-04-24T04:38:02;2.20;;;0.97;;
2598;SDS011;1309;48.810;8.954;2023-04-24T04:40:34;2.90;;;1.17;;
2598;SDS011;1309;48.810;8.954;2023-04-24T04:43:05;2.80;;;1.30;;
2598;SDS011;1309;48.810;8.954;2023-04-24T04:45:36;2.40;;;1.00;;
2598;SDS011;1309;48.810;8.954;2023-04-24T04:48:06;2.20;;;1.13;;
2598;SDS011;1309;48.810;8.954;2023-04-24T04:50:44;2.10;;;1.23;;
2598;SDS011;1309;48.810;8.954;2023-04-24T04:53:13;3.13;;;1.30;;
2598;SDS011;1309;48.810;8.954;2023-04-24T04:55:48;2.60;;;1.23;;
2598;SDS011;1309;48.810;8.954;2023-04-24T04:58:17;4.33;;;1.50;;
2598;SDS011;1309;48.810;8.954;2023-04-24T05:00:45;3.10;;;1.90;;
2598;SDS011;1309;48.810;8.954;2023-04-24T05:03:14;7.67;;;1.70;;
2598;SDS011;1309;48.810;8.954;2023-04-24T05:05:47;2.70;;;1.27;;
2598;SDS011;1309;48.810;8.954;2023-04-24T05:08:16;3.97;;;1.67;;
2598;SDS011;1309;48.810;8.954;2023-04-24T05:10:54;3.03;;;1.40;;
2598;SDS011;1309;48.810;8.954;2023-04-24T05:13:22;2.93;;;1.63;;
2598;SDS011;1309;48.810;8.954;2023-04-24T05:16:05;2.10;;;1.10;;
2598;SDS011;1309;48.810;8.954;2023-04-24T05:18:33;2.70;;;1.43;;
2598;SDS011;1309;48.810;8.954;2023-04-24T05:21:02;2.63;;;1.40;;
2598;SDS011;1309;48.810;8.954;2023-04-24T05:23:30;3.00;;;1.53;;
2598;SDS011;1309;48.810;8.954;2023-04-24T05:26:02;3.10;;;1.40;;
2598;SDS011;1309;48.810;8.954;2023-04-24T05:28:33;2.60;;;1.50;;
2598;SDS011;1309;48.810;8.954;2023-04-24T05:31:07;3.13;;;1.40;;
2598;SDS011;1309;48.810;8.954;2023-04-24T05:33:35;2.37;;;1.53;;
2598;SDS011;1309;48.810;8.954;2023-04-24T05:36:05;2.73;;;1.43;;
2598;SDS011;1309;48.810;8.954;2023-04-24T05:38:37;3.40;;;1.40;;
2598;SDS011;1309;48.810;8.954;2023-04-24T05:41:07;3.43;;;1.87;;
2598;SDS011;1309;48.810;8.954;2023-04-24T05:43:35;2.63;;;1.53;;
2598;SDS011;1309;48.810;8.954;2023-04-24T05:46:05;2.73;;;1.60;;
2598;SDS011;1309;48.810;8.954;2023-04-24T05:48:33;3.40;;;1.37;;
2598;SDS011;1309;48.810;8.954;2023-04-24T05:51:01;2.93;;;2.00;;
2598;SDS011;1309;48.810;8.954;2023-04-24T05:53:29;3.10;;;1.60;;
2598;SDS011;1309;48.810;8.954;2023-04-24T05:56:00;3.60;;;1.53;;
2598;SDS011;1309;48.810;8.954;2023-04-24T05:58:31;4.50;;;2.27;;
2598;SDS011;1309;48.810;8.954;2023-04-24T06:01:03;3.27;;;1.70;;
2598;SDS011;1309;48.810;8.954;2023-04-24T06:03:33;3.23;;;1.87;;
2598;SDS011;1309;48.810;8.954;2023-04-24T06:06:02;2.90;;;1.80;;
2598;SDS011;1309;48.810;8.954;2023-04-24T06:08:31;3.43;;;1.90;;
2598;SDS011;1309;48.810;8.954;2023-04-24T06:11:01;4.63;;;2.20;;
2598;SDS011;1309;48.810;8.954;2023-04-24T06:13:31;4.93;;;2.77;;
2598;SDS011;1309;48.810;8.954;2023-04-24T06:16:00;4.40;;;2.23;;
2598;SDS011;1309;48.810;8.954;2023-04-24T06:18:32;3.40;;;2.03;;
2598;SDS011;1309;48.810;8.954;2023-04-24T06:21:11;3.07;;;1.60;;
2598;SDS011;1309;48.810;8.954;2023-04-24T06:23:39;4.03;;;2.10;;
2598;SDS011;1309;48.810;8.954;2023-04-24T06:26:07;2.93;;;1.47;;
2598;SDS011;1309;48.810;8.954;2023-04-24T06:28:36;2.93;;;1.90;;
2598;SDS011;1309;48.810;8.954;2023-04-24T06:31:04;3.07;;;1.87;;
2598;SDS011;1309;48.810;8.954;2023-04-24T06:33:34;5.40;;;2.50;;
2598;SDS011;1309;48.810;8.954;2023-04-24T06:36:03;3.10;;;1.63;;
2598;SDS011;1309;48.810;8.954;2023-04-24T06:38:31;3.20;;;2.27;;
2598;SDS011;1309;48.810;8.954;2023-04-24T06:41:02;4.50;;;2.30;;
2598;SDS011;1309;48.810;8.954;2023-04-24T06:43:32;3.87;;;2.00;;
2598;SDS011;1309;48.810;8.954;2023-04-24T06:46:02;3.50;;;2.40;;
2598;SDS011;1309;48.810;8.954;2023-04-24T06:48:32;2.87;;;1.70;;
2598;SDS011;1309;48.810;8.954;2023-04-24T06:51:03;4.00;;;2.17;;
2598;SDS011;1309;48.810;8.954;2023-04-24T06:53:41;3.50;;;1.93;;
2598;SDS011;1309;48.810;8.954;2023-04-24T06:56:11;3.10;;;1.90;;
2598;SDS011;1309;48.810;8.954;2023-04-24T06:58:42;3.33;;;1.93;;
2598;SDS011;1309;48.810;8.954;2023-04-24T07:01:14;3.40;;;2.20;;
2598;SDS011;1309;48.810;8.954;2023-04-24T07:03:43;4.90;;;2.10;;
2598;SDS011;1309;48.810;8.954;2023-04-24T07:06:11;4.73;;;2.20;;
2598;SDS011;1309;48.810;8.954;2023-04-24T07:08:39;3.33;;;1.67;;
2598;SDS011;1309;48.810;8.954;2023-04-24T07:11:08;3.60;;;2.10;;
2598;SDS011;1309;48.810;8.954;2023-04-24T07:13:40;4.30;;;2.60;;
2598;SDS011;1309;48.810;8.954;2023-04-24T07:16:10;3.07;;;2.00;;
2598;SDS011;1309;48.810;8.954;2023-04-24T07:18:42;3.10;;;2.10;;
2598;SDS011;1309;48.810;8.954;2023-04-24T07:21:11;3.10;;;2.00;;
2598;SDS011;1309;48.810;8.954;2023-04-24T07:23:39;5.33;;;2.23;;
2598;SDS011;1309;48.810;8.954;2023-04-24T07:26:09;3.60;;;2.00;;
2598;SDS011;1309;48.810;8.954;2023-04-24T07:28:38;3.27;;;2.00;;
2598;SDS011;1309;48.810;8.954;2023-04-24T07:31:06;2.87;;;1.60;;
2598;SDS011;1309;48.810;8.954;2023-04-24T07:33:35;4.00;;;1.60;;
2598;SDS011;1309;48.810;8.954;2023-04-24T07:36:08;3.60;;;1.53;;
2598;SDS011;1309;48.810;8.954;2023-04-24T07:38:42;4.23;;;1.80;;
2598;SDS011;1309;48.810;8.954;2023-04-24T07:41:11;2.80;;;1.40;;
2598;SDS011;1309;48.810;8.954;2023-04-24T07:43:39;5.17;;;1.43;;
2598;SDS011;1309;48.810;8.954;2023-04-24T07:46:10;3.00;;;1.83;;
2598;SDS011;1309;48.810;8.954;2023-04-24T07:48:38;4.00;;;1.83;;
2598;SDS011;1309;48.810;8.954;2023-04-24T07:51:08;4.20;;;1.93;;
2598;SDS011;1309;48.810;8.954;2023-04-24T07:53:38;2.97;;;1.70;;
2598;SDS011;1309;48.810;8.954;2023-04-24T07:56:06;5.43;;;1.93;;
2598;SDS011;1309;48.810;8.954;2023-04-24T07:58:35;3.03;;;1.33;;
2598;SDS011;1309;48.810;8.954;2023-04-24T08:01:06;2.40;;;1.40;;
2598;SDS011;1309;48.810;8.954;2023-04-24T08:03:34;4.10;;;1.70;;
2598;SDS011;1309;48.810;8.954;2023-04-24T08:06:04;3.90;;;1.90;;
2598;SDS011;1309;48.810;8.954;2023-04-24T08:08:36;2.90;;;1.60;;
2598;SDS011;1309;48.810;8.954;2023-04-24T08:11:04;3.13;;;1.70;;
2598;SDS011;1309;48.810;8.954;2023-04-24T08:13:41;5.17;;;1.90;;
2598;SDS011;1309;48.810;8.954;2023-04-24T08:16:11;9.80;;;2.33;;
2598;SDS011;1309;48.810;8.954;2023-04-24T08:18:42;3.37;;;2.17;;
2598;SDS011;1309;48.810;8.954;2023-04-24T08:21:10;4.37;;;1.90;;
2598;SDS011;1309;48.810;8.954;2023-04-24T08:23:45;5.67;;;1.93;;
2598;SDS011;1309;48.810;8.954;2023-04-24T08:26:14;5.80;;;1.93;;
2598;SDS011;1309;48.810;8.954;2023-04-24T08:28:43;4.10;;;1.80;;
2598;SDS011;1309;48.810;8.954;2023-04-24T08:31:17;4.90;;;2.10;;
2598;SDS011;1309;48.810;8.954;2023-04-24T08:33:44;3.17;;;2.00;;
2598;SDS011;1309;48.810;8.954;2023-04-24T08:36:14;3.23;;;2.03;;
2598;SDS011;1309;48.810;8.954;2023-04-24T08:38:42;2.60;;;1.50;;
2598;SDS011;1309;48.810;8.954;2023-04-24T08:41:14;2.77;;;1.50;;
2598;SDS011;1309;48.810;8.954;2023-04-24T08:43:43;3.50;;;1.77;;
2598;SDS011;1309;48.810;8.954;2023-04-24T08:46:13;4.20;;;2.07;;
2598;SDS011;1309;48.810;8.954;2023-04-24T08:48:43;3.37;;;1.87;;
2598;SDS011;1309;48.810;8.954;2023-04-24T08:51:13;5.20;;;2.50;;
2598;SDS011;1309;48.810;8.954;2023-04-24T08:53:42;3.50;;;2.23;;
2598;SDS011;1309;48.810;8.954;2023-04-24T08:56:14;4.20;;;1.70;;
2598;SDS011;1309;48.810;8.954;2023-04-24T08:58:45;3.50;;;2.10;;
2598;SDS011;1309;48.810;8.954;2023-04-24T09:01:15;3.50;;;1.60;;
2598;SDS011;1309;48.810;8.954;2023-04-24T09:03:46;3.07;;;1.87;;
2598;SDS011;1309;48.810;8.954;2023-04-24T09:06:19;3.87;;;2.13;;
2598;SDS011;1309;48.810;8.954;2023-04-24T09:08:49;5.63;;;1.90;;
2598;SDS011;1309;48.810;8.954;2023-04-24T09:11:22;3.20;;;1.77;;
2598;SDS011;1309;48.810;8.954;2023-04-24T09:13:53;2.97;;;1.63;;
2598;SDS011;1309;48.810;8.954;2023-04-24T09:16:22;5.60;;;1.80;;
2598;SDS011;1309;48.810;8.954;2023-04-24T09:18:54;2.90;;;1.50;;
2598;SDS011;1309;48.810;8.954;2023-04-24T09:21:23;3.80;;;1.50;;
2598;SDS011;1309;48.810;8.954;2023-04-24T09:23:58;4.83;;;2.27;;
2598;SDS011;1309;48.810;8.954;2023-04-24T09:26:37;3.50;;;1.83;;
2598;SDS011;1309;48.810;8.954;2023-04-24T09:29:06;3.00;;;1.63;;
2598;SDS011;1309;48.810;8.954;2023-04-24T09:31:35;3.77;;;2.13;;
2598;SDS011;1309;48.810;8.954;2023-04-24T09:34:04;2.20;;;1.47;;
2598;SDS011;1309;48.810;8.954;2023-04-24T09:36:36;2.33;;;1.43;;
2598;SDS011;1309;48.810;8.954;2023-04-24T09:39:09;4.77;;;1.77;;
2598;SDS011;1309;48.810;8.954;2023-04-24T09:41:45;2.90;;;1.67;;
2598;SDS011;1309;48.810;8.954;2023-04-24T09:44:15;2.47;;;1.53;;
2598;SDS011;1309;48.810;8.954;2023-04-24T09:46:45;3.57;;;1.93;;
2598;SDS011;1309;48.810;8.954;2023-04-24T09:49:15;3.20;;;1.70;;
2598;SDS011;1309;48.810;8.954;2023-04-24T09:51:44;3.10;;;1.70;;
2598;SDS011;1309;48.810;8.954;2023-04-24T09:54:15;3.13;;;1.80;;
2598;SDS011;1309;48.810;8.954;2023-04-24T09:56:46;3.10;;;1.50;;
2598;SDS011;1309;48.810;8.954;2023-04-24T09:59:16;3.13;;;1.40;;
2598;SDS011;1309;48.810;8.954;2023-04-24T10:01:47;5.23;;;2.07;;
2598;SDS011;1309;48.810;8.954;2023-04-24T10:04:19;3.27;;;1.60;;
2598;SDS011;1309;48.810;8.954;2023-04-24T10:06:51;2.77;;;1.40;;
2598;SDS011;1309;48.810;8.954;2023-04-24T10:09:27;2.90;;;1.40;;
2598;SDS011;1309;48.810;8.954;2023-04-24T10:11:57;4.30;;;1.70;;
2598;SDS011;1309;48.810;8.954;2023-04-24T10:14:26;3.03;;;1.50;;
2598;SDS011;1309;48.810;8.954;2023-04-24T10:16:57;3.33;;;2.10;;
2598;SDS011;1309;48.810;8.954;2023-04-24T10:19:26;3.20;;;1.57;;
2598;SDS011;1309;48.810;8.954;2023-04-24T10:22:20;7.47;;;2.07;;
2598;SDS011;1309;48.810;8.954;2023-04-24T10:24:49;3.80;;;1.90;;
2598;SDS011;1309;48.810;8.954;2023-04-24T10:27:22;3.30;;;1.70;;
2598;SDS011;1309;48.810;8.954;2023-04-24T10:29:53;3.33;;;1.87;;
2598;SDS011;1309;48.810;8.954;2023-04-24T10:32:22;3.10;;;1.50;;
2598;SDS011;1309;48.810;8.954;2023-04-24T10:34:50;3.90;;;1.80;;
2598;SDS011;1309;48.810;8.954;2023-04-24T10:37:22;3.33;;;1.70;;
2598;SDS011;1309;48.810;8.954;2023-04-24T10:39:51;3.13;;;1.50;;
2598;SDS011;1309;48.810;8.954;2023-04-24T10:42:22;2.83;;;1.60;;
2598;SDS011;1309;48.810;8.954;2023-04-24T10:44:51;5.30;;;1.70;;
2598;SDS011;1309;48.810;8.954;2023-04-24T10:47:28;5.40;;;1.50;;
2598;SDS011;1309;48.810;8.954;2023-04-24T10:49:59;2.70;;;1.43;;
2598;SDS011;1309;48.810;8.954;2023-04-24T10:52:43;4.60;;;1.70;;
2598;SDS011;1309;48.810;8.954;2023-04-24T10:55:12;4.87;;;1.57;;
2598;SDS011;1309;48.810;8.954;2023-04-24T10:57:50;4.73;;;1.77;;
2598;SDS011;1309;48.810;8.954;2023-04-24T11:00:29;3.50;;;1.53;;
2598;SDS011;1309;48.810;8.954;2023-04-24T11:03:01;3.27;;;1.83;;
2598;SDS011;1309;48.810;8.954;2023-04-24T11:05:49;3.27;;;1.80;;
2598;SDS011;1309;48.810;8.954;2023-04-24T11:08:23;3.50;;;1.50;;
2598;SDS011;1309;48.810;8.954;2023-04-24T11:10:56;2.80;;;1.50;;
2598;SDS011;1309;48.810;8.954;2023-04-24T11:16:43;3.00;;;1.77;;
2598;SDS011;1309;48.810;8.954;2023-04-24T11:19:22;2.67;;;1.70;;
2598;SDS011;1309;48.810;8.954;2023-04-24T11:21:57;2.27;;;1.47;;
2598;SDS011;1309;48.810;8.954;2023-04-24T11:24:29;2.70;;;1.33;;
2598;SDS011;1309;48.810;8.954;2023-04-24T11:27:00;3.33;;;1.50;;
2598;SDS011;1309;48.810;8.954;2023-04-24T11:29:40;3.10;;;1.80;;
2598;SDS011;1309;48.810;8.954;2023-04-24T11:32:25;6.33;;;1.97;;
2598;SDS011;1309;48.810;8.954;2023-04-24T11:34:55;2.60;;;1.50;;
2598;SDS011;1309;48.810;8.954;2023-04-24T11:37:27;3.37;;;1.60;;
2598;SDS011;1309;48.810;8.954;2023-04-24T11:39:57;2.83;;;1.67;;
2598;SDS011;1309;48.810;8.954;2023-04-24T11:42:33;3.37;;;1.90;;
2598;SDS011;1309;48.810;8.954;2023-04-24T11:45:10;3.87;;;1.87;;
2598;SDS011;1309;48.810;8.954;2023-04-24T11:47:39;3.87;;;1.80;;
2598;SDS011;1309;48.810;8.954;2023-04-24T11:50:09;3.13;;;1.83;;
2598;SDS011;1309;48.810;8.954;2023-04-24T11:52:41;3.80;;;2.23;;
2598;SDS011;1309;48.810;8.954;2023-04-24T11:55:22;3.03;;;1.63;;
2598;SDS011;1309;48.810;8.954;2023-04-24T11:57:54;3.50;;;1.80;;
2598;SDS011;1309;48.810;8.954;2023-04-24T12:00:26;2.70;;;1.83;;
2598;SDS011;1309;48.810;8.954;2023-04-24T12:03:03;3.57;;;1.80;;
2598;SDS011;1309;48.810;8.954;2023-04-24T12:05:33;3.33;;;1.80;;
2598;SDS011;1309;48.810;8.954;2023-04-24T12:08:05;3.67;;;1.80;;
2598;SDS011;1309;48.810;8.954;2023-04-24T12:10:35;3.47;;;1.87;;
2598;SDS011;1309;48.810;8.954;2023-04-24T12:13:08;2.93;;;1.80;;
2598;SDS011;1309;48.810;8.954;2023-04-24T12:15:41;2.70;;;1.57;;
2598;SDS011;1309;48.810;8.954;2023-04-24T12:18:11;4.20;;;1.70;;
2598;SDS011;1309;48.810;8.954;2023-04-24T12:20:40;5.83;;;2.00;;
2598;SDS011;1309;48.810;8.954;2023-04-24T12:23:08;3.03;;;1.67;;
2598;SDS011;1309;48.810;8.954;2023-04-24T12:25:39;4.93;;;2.10;;
2598;SDS011;1309;48.810;8.954;2023-04-24T12:28:12;3.43;;;1.90;;
2598;SDS011;1309;48.810;8.954;2023-04-24T12:30:42;3.70;;;1.70;;
2598;SDS011;1309;48.810;8.954;2023-04-24T12:33:17;5.40;;;1.70;;
2598;SDS011;1309;48.810;8.954;2023-04-24T12:39:28;5.00;;;1.87;;
2598;SDS011;1309;48.810;8.954;2023-04-24T12:42:01;3.80;;;1.70;;
2598;SDS011;1309;48.810;8.954;2023-04-24T12:44:32;3.30;;;1.70;;
2598;SDS011;1309;48.810;8.954;2023-04-24T12:47:08;3.37;;;1.67;;
2598;SDS011;1309;48.810;8.954;2023-04-24T12:49:37;2.67;;;1.80;;
2598;SDS011;1309;48.810;8.954;2023-04-24T12:52:06;3.23;;;1.80;;
2598;SDS011;1309;48.810;8.954;2023-04-24T12:54:34;3.23;;;1.63;;
2598;SDS011;1309;48.810;8.954;2023-04-24T12:57:03;4.53;;;1.60;;
2598;SDS011;1309;48.810;8.954;2023-04-24T12:59:31;2.53;;;1.53;;
2598;SDS011;1309;48.810;8.954;2023-04-24T13:02:03;2.90;;;1.70;;
2598;SDS011;1309;48.810;8.954;2023-04-24T13:04:33;3.17;;;2.23;;
2598;SDS011;1309;48.810;8.954;2023-04-24T13:07:01;5.30;;;2.70;;
2598;SDS011;1309;48.810;8.954;2023-04-24T13:09:35;4.53;;;2.23;;
2598;SDS011;1309;48.810;8.954;2023-04-24T13:12:07;3.80;;;2.60;;
2598;SDS011;1309;48.810;8.954;2023-04-24T13:14:37;5.60;;;2.20;;
2598;SDS011;1309;48.810;8.954;2023-04-24T13:17:06;3.20;;;1.97;;
2598;SDS011;1309;48.810;8.954;2023-04-24T13:19:40;4.10;;;2.27;;
2598;SDS011;1309;48.810;8.954;2023-04-24T13:22:18;3.77;;;1.90;;
2598;SDS011;1309;48.810;8.954;2023-04-24T13:24:50;4.17;;;2.50;;
2598;SDS011;1309;48.810;8.954;2023-04-24T13:27:18;3.33;;;2.00;;
2598;SDS011;1309;48.810;8.954;2023-04-24T13:29:51;2.67;;;1.37;;
2598;SDS011;1309;48.810;8.954;2023-04-24T13:32:24;4.10;;;1.53;;
2598;SDS011;1309;48.810;8.954;2023-04-24T13:34:57;3.53;;;1.93;;
2598;SDS011;1309;48.810;8.954;2023-04-24T13:37:30;2.97;;;1.50;;
2598;SDS011;1309;48.810;8.954;2023-04-24T13:40:00;3.40;;;1.50;;
2598;SDS011;1309;48.810;8.954;2023-04-24T13:42:32;4.30;;;1.90;;
2598;SDS011;1309;48.810;8.954;2023-04-24T13:45:02;4.60;;;2.47;;
2598;SDS011;1309;48.810;8.954;2023-04-24T13:47:49;3.40;;;1.73;;
2598;SDS011;1309;48.810;8.954;2023-04-24T13:50:20;4.50;;;1.90;;
2598;SDS011;1309;48.810;8.954;2023-04-24T13:52:48;3.43;;;1.87;;
2598;SDS011;1309;48.810;8.954;2023-04-24T13:55:29;3.53;;;1.97;;
2598;SDS011;1309;48.810;8.954;2023-04-24T13:58:00;3.37;;;2.07;;
2598;SDS011;1309;48.810;8.954;2023-04-24T14:00:32;2.90;;;1.90;;
2598;SDS011;1309;48.810;8.954;2023-04-24T14:03:01;2.50;;;1.40;;
2598;SDS011;1309;48.810;8.954;2023-04-24T14:05:30;5.03;;;2.20;;
2598;SDS011;1309;48.810;8.954;2023-04-24T14:07:59;5.03;;;2.60;;
2598;SDS011;1309;48.810;8.954;2023-04-24T14:10:27;3.10;;;2.20;;
2598;SDS011;1309;48.810;8.954;2023-04-24T14:13:00;3.20;;;1.63;;
2598;SDS011;1309;48.810;8.954;2023-04-24T14:15:28;3.40;;;1.90;;
2598;SDS011;1309;48.810;8.954;2023-04-24T14:17:57;4.23;;;2.70;;
2598;SDS011;1309;48.810;8.954;2023-04-24T14:20:34;5.43;;;2.30;;
2598;SDS011;1309;48.810;8.954;2023-04-24T14:23:04;3.40;;;2.20;;
2598;SDS011;1309;48.810;8.954;2023-04-24T14:25:33;4.70;;;2.43;;
2598;SDS011;1309;48.810;8.954;2023-04-24T14:28:01;4.10;;;2.00;;
2598;SDS011;1309;48.810;8.954;2023-04-24T14:30:33;4.10;;;2.20;;
2598;SDS011;1309;48.810;8.954;2023-04-24T14:33:15;2.97;;;1.90;;
2598;SDS011;1309;48.810;8.954;2023-04-24T14:35:45;4.77;;;2.47;;
2598;SDS011;1309;48.810;8.954;2023-04-24T14:38:28;4.17;;;2.50;;
2598;SDS011;1309;48.810;8.954;2023-04-24T14:40:57;2.77;;;1.93;;
2598;SDS011;1309;48.810;8.954;2023-04-24T14:43:39;4.50;;;2.83;;
2598;SDS011;1309;48.810;8.954;2023-04-24T14:46:09;5.83;;;2.10;;
2598;SDS011;1309;48.810;8.954;2023-04-24T14:48:38;4.20;;;2.03;;
2598;SDS011;1309;48.810;8.954;2023-04-24T14:51:09;4.10;;;2.07;;
2598;SDS011;1309;48.810;8.954;2023-04-24T14:53:40;3.53;;;2.40;;
2598;SDS011;1309;48.810;8.954;2023-04-24T14:56:09;3.17;;;1.90;;
2598;SDS011;1309;48.810;8.954;2023-04-24T14:58:43;4.13;;;2.53;;
2598;SDS011;1309;48.810;8.954;2023-04-24T15:01:14;3.73;;;2.33;;
2598;SDS011;1309;48.810;8.954;2023-04-24T15:03:43;5.73;;;3.43;;
2598;SDS011;1309;48.810;8.954;2023-04-24T15:06:29;5.73;;;2.90;;
2598;SDS011;1309;48.810;8.954;2023-04-24T15:08:59;3.73;;;2.17;;
2598;SDS011;1309;48.810;8.954;2023-04-24T15:11:29;4.63;;;2.50;;
2598;SDS011;1309;48.810;8.954;2023-04-24T15:14:01;4.10;;;2.23;;
2598;SDS011;1309;48.810;8.954;2023-04-24T15:16:29;3.30;;;2.30;;
2598;SDS011;1309;48.810;8.954;2023-04-24T15:19:15;4.40;;;2.27;;
2598;SDS011;1309;48.810;8.954;2023-04-24T15:21:48;6.43;;;2.60;;
2598;SDS011;1309;48.810;8.954;2023-04-24T15:24:18;3.70;;;1.90;;
2598;SDS011;1309;48.810;8.954;2023-04-24T15:26:55;3.23;;;1.77;;
2598;SDS011;1309;48.810;8.954;2023-04-24T15:29:26;3.83;;;1.80;;
2598;SDS011;1309;48.810;8.954;2023-04-24T15:31:55;5.17;;;2.70;;
2598;SDS011;1309;48.810;8.954;2023-04-24T15:34:26;4.30;;;1.90;;
2598;SDS011;1309;48.810;8.954;2023-04-24T15:37:00;3.03;;;1.70;;
2598;SDS011;1309;48.810;8.954;2023-04-24T15:39:30;4.73;;;2.37;;
2598;SDS011;1309;48.810;8.954;2023-04-24T15:42:01;3.30;;;2.00;;
2598;SDS011;1309;48.810;8.954;2023-04-24T15:44:32;5.07;;;2.40;;